Adams, OK (73901)

10:15 AM CDT on July 07, 2015 (GMT -0500)
Turpin School District I-128 | | Change Station
CLOSE
Current Station
Personal Weather Station
Location: Turpin, OK
Elevation: 2769 ft
Nearby Weather Stations

Elev 2769 ft 36.86 °N, 100.88 °W | Updated 17 seconds ago

Mostly Cloudy
Mostly Cloudy
64.8 °F
Feels Like 64.8 °F
N
11.6
Wind Variable Wind from NNE
Gusts 14.0 mph

Today
High -- | Low -- °F
--% Chance of Precip.
Yesterday
High -- | Low -- °F
Precip. -- in
6:32 AM 9:06 PM
Waning Gibbous, 64% visible
Pressure 30.19 in
Visibility 4.0 miles
Clouds Few 1900 ft
Dew Point 58 °F
Humidity 79%
Rainfall 0.02 in
Snow Depth Not available.
UV 5 out of 12
Pollen .60 out of 12
Air Quality Not available.
Flu Activity Not available.
METAR KLBL 071455Z AUTO 04011KT 4SM FEW019 18/12 A3019 RMK AO1 52010

More Conditions Fewer Conditions

Pressure 30.19 in
Visibility 4.0 miles
Clouds Few 1900 ft
Dew Point 58 °F
Humidity 79%
Rainfall 0.02 in
Snow Depth Not available.
UV 5 out of 12
Pollen .60 out of 12
Air Quality Not available.
Flu Activity Not available.
METAR KLBL 071455Z AUTO 04011KT 4SM FEW019 18/12 A3019 RMK AO1 52010

More Conditions Fewer Conditions

10-Day Weather Forecast

×

Almanac

Astronomy

Jul. 07, 2015 Rise Set
Actual Time
Civil Twilight
Nautical Twilight
Astronomical Twilight
Moon
Length of Visible Light
Length of Day
Tomorrow will be .
, % of the Moon is Illuminated

Today's Extremes

State Highs State Lows

Community

WunderPhotos

Upload Photos

1,835,815 photos uploaded!

WunderBlogs® & News

Nearby

Air Quality

  Air Quality AQ Index Pollutant
Not available.

Snow Depth

Station Depth Elevation

Earthquake Activity

City Distance Mag. Time & Date
Minimum magnitude displayed is 2.5.

Coastal Water Temperatures

Place Temperature

Stations

Nearby Weather Stations

Station Location Temp. Windchill Dew Point Humidity Wind Precip. Elev Updated Type